createdAt,value
2022-12-11T00:01:57.644Z,83.16
2022-12-11T00:02:57.718Z,83.06
2022-12-11T00:03:57.605Z,83.16
2022-12-11T00:04:57.594Z,83.06
2022-12-11T00:05:57.578Z,83.48
2022-12-11T00:06:57.566Z,83.38
2022-12-11T00:07:57.585Z,83.38
2022-12-11T00:08:57.543Z,83.23
2022-12-11T00:09:57.528Z,83.02
2022-12-11T00:10:57.516Z,82.71
2022-12-11T00:11:57.503Z,82.71
2022-12-11T00:12:57.492Z,82.50
2022-12-11T00:13:57.477Z,82.46
2022-12-11T00:14:57.466Z,82.25
2022-12-11T00:15:57.480Z,82.04
2022-12-11T00:16:57.485Z,81.83
2022-12-11T00:17:57.428Z,81.94
2022-12-11T00:18:57.418Z,81.94
2022-12-11T00:19:57.401Z,81.94
2022-12-11T00:20:57.391Z,82.25
2022-12-11T00:21:57.379Z,82.04
2022-12-11T00:22:57.366Z,81.90
2022-12-11T00:23:57.352Z,81.69
2022-12-11T00:24:57.344Z,81.59
2022-12-11T00:25:57.329Z,81.17
2022-12-11T00:26:57.316Z,80.75
2022-12-11T00:27:57.302Z,80.79
2022-12-11T00:28:57.292Z,80.89
2022-12-11T00:29:57.279Z,80.99
2022-12-11T00:30:57.267Z,81.25
2022-12-11T00:31:57.376Z,81.56
2022-12-11T00:32:57.243Z,82.18
2022-12-11T00:33:57.227Z,82.71
2022-12-11T00:34:57.216Z,83.02
2022-12-11T00:35:57.202Z,82.78
2022-12-11T00:36:57.191Z,82.29
2022-12-11T00:37:57.177Z,82.39
2022-12-11T00:38:57.168Z,82.78
2022-12-11T00:39:57.152Z,83.09
2022-12-11T00:40:57.141Z,83.19
2022-12-11T00:41:57.134Z,83.05
2022-12-11T00:42:57.116Z,82.42
2022-12-11T00:43:57.106Z,81.52
2022-12-11T00:44:57.091Z,81.83
2022-12-11T00:45:57.117Z,81.73
2022-12-11T00:46:57.064Z,81.42
2022-12-11T00:47:57.079Z,81.66
2022-12-11T00:48:57.039Z,82.64
2022-12-11T00:49:57.025Z,83.38
2022-12-11T00:50:57.018Z,84.00
2022-12-11T00:51:57.001Z,84.28
2022-12-11T00:52:56.989Z,84.06
2022-12-11T00:53:56.976Z,83.96
2022-12-11T00:54:56.963Z,83.61
2022-12-11T00:55:56.955Z,83.40
2022-12-11T00:56:56.941Z,83.30
2022-12-11T00:57:56.927Z,82.04
2022-12-11T00:58:56.916Z,82.39
2022-12-11T00:59:56.903Z,83.27
2022-12-11T01:00:56.930Z,83.69
2022-12-11T01:01:56.878Z,83.89
2022-12-11T01:02:56.943Z,83.38
2022-12-11T01:03:56.875Z,83.89
2022-12-11T01:04:56.838Z,83.69
2022-12-11T01:05:56.827Z,83.69
2022-12-11T01:06:56.813Z,84.00
2022-12-11T01:07:56.840Z,83.79
2022-12-11T01:08:56.789Z,83.89
2022-12-11T01:09:56.778Z,84.52
2022-12-11T01:10:56.795Z,84.80
2022-12-11T01:11:56.752Z,84.59
2022-12-11T01:12:56.739Z,84.24
2022-12-11T01:13:56.727Z,83.92
2022-12-11T01:14:56.711Z,83.30
2022-12-11T01:15:56.701Z,83.09
2022-12-11T01:16:56.759Z,82.39
2022-12-11T01:17:56.676Z,82.85
2022-12-11T01:18:56.663Z,84.11
2022-12-11T01:19:56.675Z,84.52
2022-12-11T01:20:56.637Z,84.73
2022-12-11T01:21:56.629Z,84.42
2022-12-11T01:22:56.611Z,84.42
2022-12-11T01:23:56.600Z,85.19
2022-12-11T01:24:56.586Z,85.51
2022-12-11T01:25:56.600Z,85.68
2022-12-11T01:26:56.562Z,85.68
2022-12-11T01:27:56.550Z,85.51
2022-12-11T01:28:56.539Z,85.82
2022-12-11T01:29:56.525Z,85.68
2022-12-11T01:30:56.554Z,85.08
2022-12-11T01:37:56.430Z,86.34
2022-12-11T01:38:56.418Z,86.30
2022-12-11T01:39:56.400Z,86.09
2022-12-11T01:40:56.387Z,85.57
2022-12-11T01:41:56.375Z,85.57
2022-12-11T01:42:56.365Z,85.78
2022-12-11T01:43:56.350Z,86.09
2022-12-11T01:44:56.335Z,85.88
2022-12-11T01:45:56.380Z,85.46
2022-12-11T01:46:56.311Z,85.46
2022-12-11T01:47:56.300Z,85.57
2022-12-11T01:48:56.287Z,85.57
2022-12-11T01:49:56.275Z,85.68
2022-12-11T01:50:56.261Z,85.74
2022-12-11T01:51:56.272Z,85.63
2022-12-11T01:52:56.236Z,85.43
2022-12-11T01:53:56.225Z,85.18
2022-12-11T01:54:56.210Z,84.97
2022-12-11T01:55:56.199Z,84.83
2022-12-11T01:56:56.186Z,84.61
2022-12-11T01:57:56.173Z,84.10
2022-12-11T01:58:56.161Z,83.74
2022-12-11T01:59:56.153Z,83.74
2022-12-11T02:00:56.192Z,83.39
2022-12-11T02:01:56.128Z,82.56
2022-12-11T02:02:56.110Z,82.14
2022-12-11T02:03:56.100Z,81.82
2022-12-11T02:04:56.086Z,81.51
2022-12-11T02:05:56.073Z,81.41
2022-12-11T02:06:56.061Z,81.51
2022-12-11T02:07:56.104Z,81.68
2022-12-11T02:08:56.034Z,81.48
2022-12-11T02:09:56.036Z,81.48
2022-12-11T02:10:56.010Z,81.79
2022-12-11T02:11:55.998Z,81.44
2022-12-11T02:12:55.985Z,81.12
2022-12-11T02:13:55.973Z,80.92
2022-12-11T02:14:55.960Z,79.77
2022-12-11T02:15:55.948Z,79.66
2022-12-11T02:16:55.934Z,80.29
2022-12-11T02:17:55.923Z,79.94
2022-12-11T02:18:55.909Z,79.94
2022-12-11T02:19:55.898Z,80.05
2022-12-11T02:20:55.884Z,79.94
2022-12-11T02:21:55.872Z,79.94
2022-12-11T02:22:55.858Z,79.21
2022-12-11T02:23:55.877Z,78.80
2022-12-11T02:24:55.833Z,79.11
2022-12-11T02:25:55.823Z,78.72
2022-12-11T02:26:55.809Z,79.15
2022-12-11T02:27:55.799Z,79.29
2022-12-11T02:28:55.798Z,80.23
2022-12-11T02:29:55.772Z,80.54
2022-12-11T02:30:55.759Z,80.37
2022-12-11T02:31:55.747Z,80.99
2022-12-11T02:32:55.734Z,81.41
2022-12-11T02:33:55.723Z,81.93
2022-12-11T02:34:55.708Z,82.14
2022-12-11T02:35:55.697Z,82.42
2022-12-11T02:36:55.684Z,82.00
2022-12-11T02:37:55.674Z,81.16
2022-12-11T02:38:55.658Z,81.82
2022-12-11T02:39:55.731Z,82.39
2022-12-11T02:40:55.634Z,82.59
2022-12-11T02:41:55.622Z,83.36
2022-12-11T02:42:55.609Z,83.89
2022-12-11T02:43:55.596Z,83.89
2022-12-11T02:44:55.583Z,84.51
2022-12-11T02:45:55.602Z,84.51
2022-12-11T02:46:55.560Z,84.41
2022-12-11T02:47:55.546Z,84.55
2022-12-11T02:48:55.532Z,85.07
2022-12-11T02:49:55.520Z,84.97
2022-12-11T02:50:55.508Z,85.49
2022-12-11T02:51:55.496Z,86.01
2022-12-11T02:52:55.482Z,85.91
2022-12-11T02:53:55.470Z,86.26
2022-12-11T02:54:55.456Z,87.20
2022-12-11T02:55:55.467Z,87.14
2022-12-11T02:56:55.431Z,87.45
2022-12-11T02:57:55.420Z,87.52
2022-12-11T02:58:58.740Z,87.35
2022-12-11T02:59:55.395Z,87.87
2022-12-11T03:00:55.556Z,87.87
2022-12-11T03:01:55.370Z,87.98
2022-12-11T03:02:55.356Z,87.98
2022-12-11T03:03:55.346Z,88.25
2022-12-11T03:04:55.331Z,87.87
2022-12-11T03:05:55.321Z,87.76
2022-12-11T03:06:55.307Z,88.18
2022-12-11T03:07:55.347Z,88.18
2022-12-11T03:08:55.281Z,87.93
2022-12-11T03:09:55.269Z,87.83
2022-12-11T03:10:55.256Z,87.68
2022-12-11T03:11:55.271Z,87.27
2022-12-11T03:12:55.231Z,86.85
2022-12-11T03:13:55.221Z,86.74
2022-12-11T03:14:55.208Z,87.06
2022-12-11T03:15:55.262Z,86.85
2022-12-11T03:16:55.180Z,86.57
2022-12-11T03:17:55.169Z,86.99
2022-12-11T03:18:55.156Z,87.10
2022-12-11T03:19:55.142Z,87.24
2022-12-11T03:20:55.131Z,87.87
2022-12-11T03:21:55.121Z,87.98
2022-12-11T03:22:55.105Z,88.18
2022-12-11T03:23:55.093Z,87.98
2022-12-11T03:24:55.083Z,88.18
2022-12-11T03:25:55.069Z,88.18
2022-12-11T03:26:56.664Z,88.39
2022-12-11T03:27:55.080Z,88.50
2022-12-11T03:28:55.032Z,88.92
2022-12-11T03:29:55.018Z,89.12
2022-12-11T03:30:55.073Z,89.12
2022-12-11T03:31:54.998Z,89.30
2022-12-11T03:32:54.981Z,88.77
2022-12-11T03:33:54.968Z,88.87
2022-12-11T03:34:58.312Z,89.02
2022-12-11T03:35:54.948Z,89.02
2022-12-11T03:36:54.929Z,89.12
2022-12-11T03:37:54.917Z,89.02
2022-12-11T03:38:54.905Z,89.23
2022-12-11T03:39:54.893Z,89.30
2022-12-11T03:40:54.879Z,89.30
2022-12-11T03:41:54.869Z,88.98
2022-12-11T03:42:54.854Z,89.09
2022-12-11T03:43:54.869Z,88.87
2022-12-11T03:44:54.829Z,88.67
2022-12-11T03:45:54.863Z,88.87
2022-12-11T03:46:54.805Z,88.98
2022-12-11T03:47:54.792Z,88.98
2022-12-11T03:48:54.778Z,88.87
2022-12-11T03:49:54.767Z,88.94
2022-12-11T03:50:54.753Z,88.94
2022-12-11T03:51:54.742Z,88.73
2022-12-11T03:52:54.727Z,88.63
2022-12-11T03:53:54.715Z,88.98
2022-12-11T03:54:54.702Z,89.15
2022-12-11T03:55:54.690Z,89.15
2022-12-11T03:56:54.677Z,88.94
2022-12-11T03:57:54.665Z,88.94
2022-12-11T03:58:54.652Z,88.94
2022-12-11T03:59:54.666Z,88.73
2022-12-11T04:00:54.626Z,88.84
2022-12-11T04:01:54.699Z,88.63
2022-12-11T04:02:54.604Z,88.84
2022-12-11T04:03:54.624Z,88.94
2022-12-11T04:04:54.578Z,88.84
2022-12-11T04:05:54.565Z,88.63
2022-12-11T04:06:54.551Z,88.84
2022-12-11T04:07:54.569Z,88.31
2022-12-11T04:08:54.526Z,88.94
2022-12-11T04:09:54.515Z,89.36
2022-12-11T04:10:54.500Z,89.36
2022-12-11T04:11:54.489Z,89.15
2022-12-11T04:12:54.477Z,88.84
2022-12-11T04:13:54.465Z,88.90
2022-12-11T04:14:54.450Z,88.90
2022-12-11T04:15:54.525Z,88.69
2022-12-11T04:16:54.424Z,88.69
2022-12-11T04:17:54.415Z,88.59
2022-12-11T04:18:54.403Z,88.59
2022-12-11T04:19:54.387Z,88.38
2022-12-11T04:20:54.375Z,88.38
2022-12-11T04:21:54.363Z,88.38
2022-12-11T04:22:54.349Z,88.84
2022-12-11T04:23:54.340Z,89.50
2022-12-11T04:24:54.323Z,90.30
2022-12-11T04:25:54.312Z,90.09
2022-12-11T04:26:54.299Z,89.99
2022-12-11T04:27:54.288Z,90.19
2022-12-11T04:28:54.276Z,90.24
2022-12-11T04:29:54.261Z,90.66
2022-12-11T04:30:54.299Z,90.55
2022-12-11T04:31:54.267Z,90.55
2022-12-11T04:32:54.222Z,90.66
2022-12-11T04:33:54.211Z,90.66
2022-12-11T04:34:54.197Z,90.86
2022-12-11T04:35:54.186Z,90.82
2022-12-11T04:36:54.175Z,90.51
2022-12-11T04:37:54.160Z,90.41
2022-12-11T04:38:54.146Z,90.19
2022-12-11T04:39:54.138Z,90.30
2022-12-11T04:40:54.122Z,89.78
2022-12-11T04:41:54.110Z,89.99
2022-12-11T04:42:54.100Z,90.30
2022-12-11T04:43:54.086Z,90.51
2022-12-11T04:44:54.072Z,90.30
2022-12-11T04:45:54.063Z,90.16
2022-12-11T04:46:54.046Z,89.94
2022-12-11T04:47:54.061Z,89.80
2022-12-11T04:48:57.674Z,89.48
2022-12-11T04:49:54.008Z,89.28
2022-12-11T04:50:53.994Z,89.23
2022-12-11T04:51:53.983Z,88.88
2022-12-11T04:52:53.970Z,88.36
2022-12-11T04:53:53.958Z,87.90
2022-12-11T04:54:53.951Z,87.17
2022-12-11T04:55:53.934Z,86.34
2022-12-11T04:56:53.919Z,85.19
2022-12-11T04:57:53.907Z,85.44
2022-12-11T04:58:53.893Z,86.27
2022-12-11T04:59:53.882Z,86.42
2022-12-11T05:00:53.868Z,86.69
2022-12-11T05:01:54.023Z,86.59
2022-12-11T05:02:53.919Z,86.31
2022-12-11T05:03:53.855Z,86.63
2022-12-11T05:04:53.817Z,86.42
2022-12-11T05:05:53.807Z,86.98
2022-12-11T05:06:53.793Z,87.60
2022-12-11T05:07:53.859Z,88.03
2022-12-11T05:08:53.768Z,88.23
2022-12-11T05:09:53.756Z,88.34
2022-12-11T05:10:53.745Z,88.34
2022-12-11T05:11:53.730Z,88.19
2022-12-11T05:12:53.717Z,87.73
2022-12-11T05:13:53.705Z,87.42
2022-12-11T05:14:53.691Z,86.90
2022-12-11T05:15:53.743Z,86.69
2022-12-11T05:16:53.665Z,85.96
2022-12-11T05:17:53.655Z,86.00
2022-12-11T05:18:53.641Z,86.46
2022-12-11T05:19:53.654Z,87.60
2022-12-11T05:20:53.617Z,87.71
2022-12-11T05:21:53.602Z,87.81
2022-12-11T05:22:53.592Z,88.17
2022-12-11T05:23:53.577Z,88.80
2022-12-11T05:24:53.567Z,88.75
2022-12-11T05:25:53.552Z,88.13
2022-12-11T05:26:53.545Z,88.59
2022-12-11T05:27:53.527Z,88.69
2022-12-11T05:28:53.516Z,88.80
2022-12-11T05:29:59.099Z,89.11
2022-12-11T05:30:53.508Z,89.53
2022-12-11T05:31:53.476Z,89.53
2022-12-11T05:32:53.466Z,89.53
2022-12-11T05:33:53.451Z,89.42
2022-12-11T05:34:53.443Z,89.42
2022-12-11T05:35:53.452Z,89.36
2022-12-11T05:36:53.419Z,90.09
2022-12-11T05:37:53.406Z,90.16
2022-12-11T05:38:53.393Z,89.69
2022-12-11T05:39:53.379Z,88.97
2022-12-11T05:40:53.366Z,88.80
2022-12-11T05:41:53.351Z,89.32
2022-12-11T05:42:53.340Z,89.28
2022-12-11T05:43:53.327Z,89.28
2022-12-11T05:44:53.316Z,88.97
2022-12-11T05:45:53.306Z,88.44
2022-12-11T05:46:53.363Z,88.13
2022-12-11T05:47:53.276Z,87.92
2022-12-11T05:48:53.266Z,88.23
2022-12-11T05:49:53.252Z,88.44
2022-12-11T05:50:53.242Z,88.19
2022-12-11T05:51:53.250Z,87.81
2022-12-11T05:52:53.216Z,87.71
2022-12-11T05:53:53.204Z,87.81
2022-12-11T05:54:53.193Z,88.34
2022-12-11T05:55:53.175Z,88.80
2022-12-11T05:56:53.163Z,89.00
2022-12-11T05:57:53.152Z,89.53
2022-12-11T05:58:53.139Z,89.42
2022-12-11T05:59:53.129Z,89.32
2022-12-11T06:00:53.114Z,89.11
2022-12-11T06:01:53.235Z,89.53
2022-12-11T06:02:53.251Z,89.42
2022-12-11T06:03:53.078Z,89.42
2022-12-11T06:04:53.061Z,89.32
2022-12-11T06:05:53.048Z,89.17
2022-12-11T06:06:53.037Z,88.97
2022-12-11T06:07:53.123Z,88.75
2022-12-11T06:08:53.011Z,88.44
2022-12-11T06:09:52.996Z,88.61
2022-12-11T06:10:52.988Z,88.09
2022-12-11T06:11:52.972Z,87.78
2022-12-11T06:12:52.961Z,87.57
2022-12-11T06:13:52.951Z,87.67
2022-12-11T06:14:52.935Z,87.84
2022-12-11T06:15:52.922Z,87.84
2022-12-11T06:16:52.948Z,87.63
2022-12-11T06:17:52.896Z,87.15
2022-12-11T06:18:57.001Z,87.36
2022-12-11T06:19:52.870Z,87.42
2022-12-11T06:20:52.860Z,87.63
2022-12-11T06:21:52.845Z,87.73
2022-12-11T06:22:52.834Z,87.84
2022-12-11T06:23:52.916Z,87.32
2022-12-11T06:24:52.811Z,87.11
2022-12-11T06:25:52.796Z,86.80
2022-12-11T06:26:52.784Z,86.48
2022-12-11T06:27:52.768Z,86.45
2022-12-11T06:28:52.763Z,86.17
2022-12-11T06:29:52.744Z,86.07
2022-12-11T06:30:52.736Z,86.38
2022-12-11T06:31:52.780Z,86.73
2022-12-11T06:32:52.708Z,87.36
2022-12-11T06:33:52.693Z,87.46
2022-12-11T06:34:52.684Z,87.57
2022-12-11T06:35:52.668Z,87.67
2022-12-11T06:36:52.658Z,87.63
2022-12-11T06:37:52.647Z,87.53
2022-12-11T06:38:52.634Z,87.39
2022-12-11T06:39:52.639Z,86.96
2022-12-11T06:40:52.607Z,86.24
2022-12-11T06:41:52.592Z,85.68
2022-12-11T06:42:52.580Z,85.68
2022-12-11T06:43:52.567Z,85.36
2022-12-11T06:44:52.557Z,85.36
2022-12-11T06:45:52.616Z,85.26
2022-12-11T06:46:52.529Z,85.05
2022-12-11T06:47:52.516Z,84.84
2022-12-11T06:48:52.508Z,84.53
2022-12-11T06:49:52.491Z,84.42
2022-12-11T06:50:52.479Z,84.53
2022-12-11T06:51:52.464Z,84.53
2022-12-11T06:52:52.473Z,83.90
2022-12-11T06:53:52.444Z,83.48
2022-12-11T06:54:52.437Z,83.84
2022-12-11T06:55:52.459Z,84.36
2022-12-11T06:56:52.403Z,84.25
2022-12-11T06:57:52.389Z,84.77
2022-12-11T06:58:52.378Z,84.99
2022-12-11T06:59:52.364Z,85.02
2022-12-11T07:00:52.364Z,85.69
2022-12-11T07:01:52.434Z,86.10
2022-12-11T07:02:52.328Z,86.07
2022-12-11T07:03:52.318Z,86.27
2022-12-11T07:04:55.194Z,86.27
2022-12-11T07:05:52.292Z,86.27
2022-12-11T07:06:52.276Z,85.96
2022-12-11T07:07:52.270Z,85.27
2022-12-11T07:08:52.255Z,85.79
2022-12-11T07:09:52.245Z,86.04
2022-12-11T07:10:52.227Z,86.66
2022-12-11T07:11:52.238Z,87.33
2022-12-11T07:12:52.202Z,87.96
2022-12-11T07:13:52.190Z,88.38
2022-12-11T07:14:52.176Z,88.38
2022-12-11T07:15:52.162Z,88.69
2022-12-11T07:16:52.246Z,87.92
2022-12-11T07:17:52.136Z,88.03
2022-12-11T07:18:52.130Z,88.03
2022-12-11T07:19:52.112Z,87.81
2022-12-11T07:20:52.102Z,87.36
2022-12-11T07:21:52.085Z,87.29
2022-12-11T07:22:52.075Z,87.09
2022-12-11T07:23:52.061Z,87.25
2022-12-11T07:24:52.048Z,86.98
2022-12-11T07:25:52.035Z,87.29
2022-12-11T07:26:52.024Z,87.50
2022-12-11T07:27:52.032Z,87.71
2022-12-11T07:28:51.998Z,87.46
2022-12-11T07:29:51.984Z,87.46
2022-12-11T07:30:51.973Z,87.36
2022-12-11T07:31:51.959Z,86.59
2022-12-11T07:32:52.116Z,86.38
2022-12-11T07:33:51.933Z,86.48
2022-12-11T07:34:52.319Z,86.07
2022-12-11T07:35:51.911Z,85.96
2022-12-11T07:36:51.897Z,85.86
2022-12-11T07:37:51.882Z,86.21
2022-12-11T07:38:51.879Z,87.04
2022-12-11T07:39:51.861Z,86.94
2022-12-11T07:40:51.849Z,86.80
2022-12-11T07:41:51.833Z,85.96
2022-12-11T07:42:51.824Z,86.17
2022-12-11T07:43:51.829Z,86.27
2022-12-11T07:44:51.799Z,86.38
2022-12-11T07:45:51.803Z,86.38
2022-12-11T07:46:51.780Z,86.24
2022-12-11T07:47:51.756Z,86.02
2022-12-11T07:48:51.746Z,85.68
2022-12-11T07:49:51.731Z,85.36
2022-12-11T07:50:51.720Z,84.70
2022-12-11T07:51:51.706Z,84.28
2022-12-11T07:52:51.696Z,84.28
2022-12-11T07:53:51.682Z,83.66
2022-12-11T07:54:51.672Z,83.24
2022-12-11T07:55:51.658Z,83.14
2022-12-11T07:56:53.911Z,83.28
2022-12-11T07:57:51.636Z,83.59
2022-12-11T07:58:51.622Z,84.29
2022-12-11T07:59:51.632Z,85.02
2022-12-11T08:00:51.666Z,85.65
2022-12-11T08:02:51.620Z,85.71
2022-12-11T08:03:51.562Z,85.78
2022-12-11T08:04:51.553Z,85.09
2022-12-11T08:05:51.538Z,84.67
2022-12-11T08:06:51.529Z,85.30
2022-12-11T08:07:51.551Z,85.61
2022-12-11T08:08:51.505Z,85.40
2022-12-11T08:09:51.488Z,84.77
2022-12-11T08:10:51.477Z,85.44
2022-12-11T08:11:51.465Z,85.65
2022-12-11T08:12:51.453Z,86.63
2022-12-11T08:13:51.441Z,86.59
2022-12-11T08:14:51.429Z,86.27
2022-12-11T08:15:51.483Z,85.96
2022-12-11T08:16:51.501Z,85.96
2022-12-11T08:17:51.392Z,86.07
2022-12-11T08:18:51.381Z,86.27
2022-12-11T08:19:51.371Z,86.17
2022-12-11T08:20:51.356Z,86.48
2022-12-11T08:21:51.344Z,86.59
2022-12-11T08:22:55.910Z,86.55
2022-12-11T08:23:51.321Z,86.13
2022-12-11T08:24:51.307Z,85.61
2022-12-11T08:25:51.294Z,85.30
2022-12-11T08:26:51.285Z,85.40
2022-12-11T08:27:51.272Z,85.71
2022-12-11T08:28:51.258Z,85.71
2022-12-11T08:29:51.244Z,85.68
2022-12-11T08:30:51.286Z,85.26
2022-12-11T08:31:51.243Z,85.11
2022-12-11T08:32:51.209Z,84.80
2022-12-11T08:33:51.198Z,84.49
2022-12-11T08:34:51.185Z,84.17
2022-12-11T08:35:51.175Z,84.03
2022-12-11T08:36:51.161Z,83.62
2022-12-11T08:37:51.148Z,83.72
2022-12-11T08:38:51.142Z,83.37
2022-12-11T08:39:51.123Z,82.44
2022-12-11T08:40:51.114Z,81.81
2022-12-11T08:41:51.100Z,81.81
2022-12-11T08:42:51.088Z,81.60
2022-12-11T08:43:51.075Z,81.85
2022-12-11T08:44:51.065Z,82.51
2022-12-11T08:45:51.102Z,82.61
2022-12-11T08:46:51.040Z,83.69
2022-12-11T08:47:51.048Z,84.22
2022-12-11T08:48:51.019Z,84.57
2022-12-11T08:49:51.003Z,84.99
2022-12-11T08:50:50.990Z,84.88
2022-12-11T08:51:50.983Z,84.94
2022-12-11T08:52:50.973Z,84.74
2022-12-11T08:53:50.954Z,84.84
2022-12-11T08:54:50.945Z,84.84
2022-12-11T08:55:50.942Z,84.84
2022-12-11T08:56:54.867Z,84.88
2022-12-11T08:57:50.907Z,85.09
2022-12-11T08:58:50.894Z,85.51
2022-12-11T08:59:50.891Z,85.51
2022-12-11T09:00:50.871Z,86.02
2022-12-11T09:01:50.908Z,86.02
2022-12-11T09:02:50.875Z,86.24
2022-12-11T09:03:50.854Z,86.34
2022-12-11T09:04:50.822Z,86.17
2022-12-11T09:05:50.808Z,86.59
2022-12-11T09:06:50.798Z,87.11
2022-12-11T09:07:50.825Z,87.21
2022-12-11T09:08:52.950Z,86.69
2022-12-11T09:09:50.761Z,86.90
2022-12-11T09:10:50.748Z,87.21
2022-12-11T09:11:50.733Z,87.63
2022-12-11T09:12:50.721Z,87.63
2022-12-11T09:13:50.709Z,87.49
2022-12-11T09:14:50.697Z,87.28
2022-12-11T09:15:50.701Z,86.96
2022-12-11T09:16:50.671Z,86.51
2022-12-11T09:17:50.658Z,85.99
2022-12-11T09:18:50.660Z,85.57
2022-12-11T09:19:50.653Z,85.26
2022-12-11T09:20:50.623Z,85.26
2022-12-11T09:21:50.608Z,85.30
2022-12-11T09:22:50.597Z,85.82
2022-12-11T09:23:50.582Z,86.30
2022-12-11T09:24:50.575Z,86.61
2022-12-11T09:25:50.558Z,86.37
2022-12-11T09:26:50.545Z,86.37
2022-12-11T09:27:50.533Z,86.01
2022-12-11T09:28:50.522Z,85.77
2022-12-11T09:29:50.509Z,85.14
2022-12-11T09:30:50.557Z,84.62
2022-12-11T09:31:50.492Z,84.06
2022-12-11T09:32:50.476Z,83.44
2022-12-11T09:33:50.460Z,83.44
2022-12-11T09:34:50.446Z,82.92
2022-12-11T09:35:50.461Z,82.71
2022-12-11T09:36:50.422Z,82.61
2022-12-11T09:37:50.410Z,81.87
2022-12-11T09:38:50.397Z,81.92
2022-12-11T09:39:50.389Z,82.23
2022-12-11T09:40:50.372Z,82.26
2022-12-11T09:41:50.361Z,83.55
2022-12-11T09:42:50.348Z,84.07
2022-12-11T09:43:50.336Z,84.07
2022-12-11T09:44:50.323Z,84.22
2022-12-11T09:45:50.368Z,84.53
2022-12-11T09:46:50.330Z,85.47
2022-12-11T09:47:50.292Z,85.61
2022-12-11T09:48:50.275Z,85.82
2022-12-11T09:49:50.265Z,85.82
2022-12-11T09:50:50.252Z,85.88
2022-12-11T09:51:50.270Z,85.78
2022-12-11T09:52:50.227Z,85.32
2022-12-11T09:53:50.216Z,85.15
2022-12-11T09:54:50.203Z,85.15
2022-12-11T09:55:50.192Z,84.91
2022-12-11T09:56:50.183Z,84.60
2022-12-11T09:57:50.170Z,84.49
2022-12-11T09:58:50.153Z,84.07
2022-12-11T09:59:50.143Z,83.45
2022-12-11T10:00:50.132Z,83.55
2022-12-11T10:01:50.165Z,84.17
2022-12-11T10:02:50.154Z,84.17
2022-12-11T10:03:50.094Z,83.93
2022-12-11T10:04:50.080Z,83.62
2022-12-11T10:05:50.070Z,82.95
2022-12-11T10:06:50.059Z,82.33
2022-12-11T10:07:50.093Z,81.35
2022-12-11T10:08:50.034Z,80.42
2022-12-11T10:09:50.023Z,79.76
2022-12-11T10:10:50.009Z,79.44
2022-12-11T10:11:56.061Z,78.99
2022-12-11T10:12:49.984Z,78.37
2022-12-11T10:13:49.974Z,77.92
2022-12-11T10:14:50.013Z,77.44
2022-12-11T10:15:50.009Z,78.06
2022-12-11T10:16:49.934Z,78.06
2022-12-11T10:17:49.922Z,77.96
2022-12-11T10:18:49.905Z,78.27
2022-12-11T10:19:49.897Z,77.64
2022-12-11T10:20:49.881Z,78.10
2022-12-11T10:21:49.869Z,78.51
2022-12-11T10:22:49.852Z,78.24
2022-12-11T10:23:49.869Z,79.62
2022-12-11T10:25:49.814Z,79.83
2022-12-11T10:26:49.802Z,80.35
2022-12-11T10:27:49.789Z,80.56
2022-12-11T10:28:49.776Z,80.42
2022-12-11T10:29:49.765Z,80.32
2022-12-11T10:30:49.814Z,80.01
2022-12-11T10:31:49.739Z,79.69
2022-12-11T10:32:49.724Z,79.55
2022-12-11T10:33:49.713Z,79.44
2022-12-11T10:34:49.699Z,78.93
2022-12-11T10:35:49.683Z,78.72
2022-12-11T10:36:49.669Z,78.72
2022-12-11T10:37:49.657Z,78.58
2022-12-11T10:38:49.643Z,78.47
2022-12-11T10:39:49.653Z,78.16
2022-12-11T10:40:49.617Z,77.96
2022-12-11T10:41:49.607Z,77.96
2022-12-11T10:42:49.590Z,77.75
2022-12-11T10:43:49.580Z,77.85
2022-12-11T10:44:49.562Z,77.75
2022-12-11T10:45:49.551Z,77.54
2022-12-11T10:46:49.607Z,77.44
2022-12-11T10:47:49.523Z,77.54
2022-12-11T10:48:49.508Z,77.61
2022-12-11T10:49:49.500Z,77.09
2022-12-11T10:50:49.483Z,76.67
2022-12-11T10:51:49.472Z,76.78
2022-12-11T10:52:49.458Z,76.67
2022-12-11T10:53:49.446Z,76.47
2022-12-11T10:54:49.431Z,76.81
2022-12-11T10:55:49.441Z,77.33
2022-12-11T10:56:49.425Z,77.13
2022-12-11T10:57:49.393Z,77.23
2022-12-11T10:58:49.378Z,77.47
2022-12-11T10:59:49.367Z,78.30
2022-12-11T11:00:49.352Z,78.37
2022-12-11T11:01:49.384Z,78.16
2022-12-11T11:02:49.385Z,77.85
2022-12-11T11:03:49.313Z,78.27
2022-12-11T11:04:49.297Z,78.47
2022-12-11T11:05:49.725Z,78.54
2022-12-11T11:06:49.272Z,78.23
2022-12-11T11:07:49.336Z,77.61
2022-12-11T11:08:49.247Z,77.30
2022-12-11T11:09:49.235Z,77.64
2022-12-11T11:10:49.220Z,77.44
2022-12-11T11:11:49.234Z,78.41
2022-12-11T11:12:49.199Z,79.44
2022-12-11T11:13:49.183Z,79.97
2022-12-11T11:14:49.169Z,80.21
2022-12-11T11:15:49.256Z,80.73
2022-12-11T11:16:49.146Z,81.08
2022-12-11T11:17:55.070Z,81.08
2022-12-11T11:18:49.115Z,81.50
2022-12-11T11:19:49.103Z,81.70
2022-12-11T11:20:49.090Z,81.18
2022-12-11T11:21:49.078Z,80.70
2022-12-11T11:22:49.063Z,81.22
2022-12-11T11:23:53.288Z,81.89
2022-12-11T11:24:49.037Z,82.58
2022-12-11T11:25:49.026Z,82.16
2022-12-11T11:27:12.306Z,81.60
2022-12-11T11:27:49.022Z,81.29
2022-12-11T11:28:48.983Z,81.18
2022-12-11T11:29:53.067Z,80.73
2022-12-11T11:30:48.996Z,80.46
2022-12-11T11:31:48.947Z,80.94
2022-12-11T11:32:48.932Z,80.56
2022-12-11T11:33:48.920Z,81.64
2022-12-11T11:34:48.906Z,81.70
2022-12-11T11:35:48.892Z,81.32
2022-12-11T11:36:48.879Z,81.18
2022-12-11T11:37:48.867Z,81.22
2022-12-11T11:38:48.851Z,81.22
2022-12-11T11:39:48.841Z,81.12
2022-12-11T11:40:48.830Z,81.43
2022-12-11T11:41:48.814Z,81.95
2022-12-11T11:42:48.798Z,81.22
2022-12-11T11:43:48.811Z,80.91
2022-12-11T11:44:48.775Z,81.57
2022-12-11T11:45:48.761Z,81.32
2022-12-11T11:46:48.767Z,81.89
2022-12-11T11:47:48.732Z,82.44
2022-12-11T11:48:48.719Z,83.31
2022-12-11T11:49:48.706Z,84.36
2022-12-11T11:50:48.691Z,84.99
2022-12-11T11:51:48.682Z,84.94
2022-12-11T11:52:48.668Z,84.42
2022-12-11T11:53:48.662Z,83.45
2022-12-11T11:54:48.642Z,82.68
2022-12-11T11:55:48.628Z,82.78
2022-12-11T11:56:48.617Z,82.68
2022-12-11T11:57:48.604Z,82.33
2022-12-11T11:58:48.589Z,81.92
2022-12-11T11:59:48.603Z,81.50
2022-12-11T12:00:48.560Z,80.87
2022-12-11T12:01:48.549Z,80.98
2022-12-11T12:02:48.574Z,80.94
2022-12-11T12:03:48.524Z,80.46
2022-12-11T12:04:48.510Z,80.77
2022-12-11T12:05:48.497Z,80.63
2022-12-11T12:06:50.865Z,80.15
2022-12-11T12:07:48.520Z,80.67
2022-12-11T12:08:48.460Z,80.77
2022-12-11T12:09:48.474Z,81.32
2022-12-11T12:10:48.434Z,81.70
2022-12-11T12:11:48.417Z,81.18
2022-12-11T12:12:48.405Z,81.60
2022-12-11T12:13:49.880Z,81.08
2022-12-11T12:14:52.567Z,81.39
2022-12-11T12:15:48.389Z,81.04
2022-12-11T12:16:53.171Z,80.84
2022-12-11T12:17:53.601Z,80.63
2022-12-11T12:18:48.327Z,80.59
2022-12-11T12:19:48.313Z,80.18
2022-12-11T12:20:48.300Z,79.76
2022-12-11T12:21:48.287Z,79.55
2022-12-11T12:22:48.272Z,79.13
2022-12-11T12:23:48.261Z,79.51
2022-12-11T12:24:48.248Z,79.03
2022-12-11T12:25:48.234Z,79.13
2022-12-11T12:26:48.222Z,79.20
2022-12-11T12:27:52.738Z,78.51
2022-12-11T12:28:48.196Z,79.17
2022-12-11T12:29:48.182Z,79.87
2022-12-11T12:30:48.168Z,79.24
2022-12-11T12:31:48.207Z,79.17
2022-12-11T12:32:48.142Z,79.55
2022-12-11T12:33:48.134Z,79.34
2022-12-11T12:34:48.116Z,78.20
2022-12-11T12:35:48.104Z,77.99
2022-12-11T12:36:48.092Z,77.68
2022-12-11T12:37:48.078Z,77.85
2022-12-11T12:38:48.064Z,77.96
2022-12-11T12:39:48.051Z,77.92
2022-12-11T12:40:48.037Z,77.33
2022-12-11T12:41:48.027Z,77.50
2022-12-11T12:42:48.012Z,77.50
2022-12-11T12:43:48.040Z,76.84
2022-12-11T12:44:47.987Z,76.74
2022-12-11T12:45:48.039Z,76.26
2022-12-11T12:46:47.963Z,76.26
2022-12-11T12:47:53.198Z,77.54
2022-12-11T12:48:47.935Z,77.64
2022-12-11T12:49:47.924Z,77.54
2022-12-11T12:50:47.916Z,77.44
2022-12-11T12:51:47.901Z,77.54
2022-12-11T12:52:47.888Z,77.68
2022-12-11T12:53:47.873Z,78.86
2022-12-11T12:54:47.861Z,78.75
2022-12-11T12:55:47.856Z,79.65
2022-12-11T12:56:47.835Z,79.03
2022-12-11T12:57:47.826Z,79.44
2022-12-11T12:58:47.816Z,78.89
2022-12-11T12:59:47.803Z,78.33
2022-12-11T13:00:47.854Z,77.19
2022-12-11T13:01:47.817Z,77.16